Time;durP1;ratioP1;P1;durP2;ratioP2;P2;SDS_P1;SDS_P2;PMS_P1;PMS_P2;Temp;Humidity;BMP_temperature;BMP_pressure;BME280_temperature;BME280_humidity;BME280_pressure;Samples;Min_cycle;Max_cycle;Signal;HPM_P1;HPM_P2
2022/07/25 00:01:10;;;;;;;;;;;27.00;50.50;;;;;;5053899;28;20372;-60
2022/07/25 00:03:35;;;;;;;;;;;27.00;50.50;;;;;;5052795;28;19975;-61
2022/07/25 00:06:00;;;;;;;;;;;27.00;50.20;;;;;;5052824;28;20357;-61
2022/07/25 00:08:26;;;;;;;;;;;27.10;50.30;;;;;;5052270;28;20315;-61
2022/07/25 00:10:51;;;;;;;;;;;27.10;50.10;;;;;;5052234;28;19975;-61
2022/07/25 00:13:17;;;;;;;;;;;27.10;50.00;;;;;;5052213;28;19955;-61
2022/07/25 00:15:42;;;;;;;;;;;27.10;50.30;;;;;;5052822;28;20007;-61
2022/07/25 00:18:08;;;;;;;;;;;27.00;50.30;;;;;;5054299;28;19909;-61
2022/07/25 00:20:33;;;;;;;;;;;27.00;50.40;;;;;;5053325;28;19913;-60
2022/07/25 00:22:59;;;;;;;;;;;26.90;50.40;;;;;;5046978;28;20452;-61
2022/07/25 00:25:24;;;;;;;;;;;26.90;50.40;;;;;;5052040;28;19917;-61
2022/07/25 00:27:50;;;;;;;;;;;27.00;50.20;;;;;;5053437;28;19917;-61
2022/07/25 00:30:15;;;;;;;;;;;26.90;50.20;;;;;;5051437;28;20004;-60
2022/07/25 00:32:41;;;;;;;;;;;26.90;50.30;;;;;;5052984;28;19916;-61
2022/07/25 00:35:06;;;;;;;;;;;26.90;50.10;;;;;;5052904;28;19959;-61
2022/07/25 00:37:32;;;;;;;;;;;26.80;50.20;;;;;;5051916;28;19916;-61
2022/07/25 00:39:57;;;;;;;;;;;26.90;50.10;;;;;;5053191;28;20316;-60
2022/07/25 00:42:23;;;;;;;;;;;26.90;50.00;;;;;;5051017;28;19912;-61
2022/07/25 00:44:48;;;;;;;;;;;26.90;50.10;;;;;;5051069;28;19917;-61
2022/07/25 00:47:13;;;;;;;;;;;26.80;50.00;;;;;;5051852;28;19917;-61
2022/07/25 00:49:39;;;;;;;;;;;26.90;50.10;;;;;;5053716;28;19912;-61
2022/07/25 00:52:04;;;;;;;;;;;26.90;49.80;;;;;;5052831;28;19913;-61
2022/07/25 00:54:30;;;;;;;;;;;26.90;49.90;;;;;;5050793;28;19913;-61
2022/07/25 00:56:55;;;;;;;;;;;26.90;49.80;;;;;;5046403;28;19967;-61
2022/07/25 00:59:21;;;;;;;;;;;26.90;49.90;;;;;;5051635;28;19913;-61
2022/07/25 01:01:46;;;;;;;;;;;26.90;49.80;;;;;;5050828;28;19917;-61
2022/07/25 01:04:12;;;;;;;;;;;27.00;49.90;;;;;;5052509;28;20407;-61
2022/07/25 01:06:37;;;;;;;;;;;27.00;49.80;;;;;;5052487;28;19912;-61
2022/07/25 01:09:03;;;;;;;;;;;27.00;49.60;;;;;;5049706;28;19912;-61
2022/07/25 01:11:28;;;;;;;;;;;27.10;49.50;;;;;;5051516;28;19928;-60
2022/07/25 01:13:54;;;;;;;;;;;27.00;49.60;;;;;;5052935;28;19939;-61
2022/07/25 01:16:19;;;;;;;;;;;27.10;49.50;;;;;;5053143;28;19947;-61
2022/07/25 01:18:45;;;;;;;;;;;27.10;49.30;;;;;;5047383;28;19920;-61
2022/07/25 01:21:10;;;;;;;;;;;27.10;49.30;;;;;;5053361;28;20023;-60
2022/07/25 01:23:35;;;;;;;;;;;27.10;49.20;;;;;;5052192;28;19917;-61
2022/07/25 01:26:01;;;;;;;;;;;27.10;49.10;;;;;;5050754;28;20771;-60
2022/07/25 01:28:26;;;;;;;;;;;27.20;49.00;;;;;;5052886;28;19924;-61
2022/07/25 01:30:52;;;;;;;;;;;27.20;49.00;;;;;;5046251;28;19917;-60
2022/07/25 01:33:18;;;;;;;;;;;27.20;49.00;;;;;;5050201;28;19938;-60
2022/07/25 01:35:44;;;;;;;;;;;27.20;48.90;;;;;;5050395;28;20003;-61
2022/07/25 01:38:09;;;;;;;;;;;27.20;49.10;;;;;;5048489;28;19912;-60
2022/07/25 01:40:35;;;;;;;;;;;27.20;48.70;;;;;;5052025;28;20380;-61
2022/07/25 01:43:00;;;;;;;;;;;27.10;49.00;;;;;;5051641;28;20000;-61
2022/07/25 01:45:25;;;;;;;;;;;27.10;48.90;;;;;;5051775;28;19976;-60
2022/07/25 01:47:51;;;;;;;;;;;27.10;48.90;;;;;;5050074;28;19923;-61
2022/07/25 01:50:16;;;;;;;;;;;27.10;48.80;;;;;;5050261;28;20004;-60
2022/07/25 01:52:43;;;;;;;;;;;27.10;49.00;;;;;;5049459;28;19917;-61
2022/07/25 01:55:08;;;;;;;;;;;27.10;48.90;;;;;;5051583;28;19913;-61
2022/07/25 01:57:34;;;;;;;;;;;27.10;48.90;;;;;;5050968;28;19938;-61
2022/07/25 01:59:59;;;;;;;;;;;27.10;48.90;;;;;;5050756;28;19936;-61
2022/07/25 02:02:24;;;;;;;;;;;27.10;49.00;;;;;;5051607;28;19919;-61
2022/07/25 02:04:50;;;;;;;;;;;27.10;49.00;;;;;;5050943;28;20020;-61
2022/07/25 02:07:15;;;;;;;;;;;27.10;48.80;;;;;;5048059;28;19938;-60
2022/07/25 02:09:41;;;;;;;;;;;27.10;48.90;;;;;;5051250;28;19913;-60
2022/07/25 02:12:06;;;;;;;;;;;27.10;48.80;;;;;;5050968;28;20011;-60
2022/07/25 02:14:32;;;;;;;;;;;27.10;48.90;;;;;;5050897;28;19913;-60
2022/07/25 02:16:58;;;;;;;;;;;27.10;48.80;;;;;;5051163;28;19916;-61
2022/07/25 02:19:23;;;;;;;;;;;27.10;48.70;;;;;;5051144;28;19913;-61
2022/07/25 02:21:48;;;;;;;;;;;27.10;48.70;;;;;;5044828;28;19928;-61
2022/07/25 02:24:14;;;;;;;;;;;27.00;48.60;;;;;;5051228;28;20015;-60
2022/07/25 02:26:39;;;;;;;;;;;27.00;48.60;;;;;;5050984;28;20054;-60
2022/07/25 02:29:05;;;;;;;;;;;27.00;48.40;;;;;;5048968;28;19913;-60
2022/07/25 02:31:30;;;;;;;;;;;27.00;48.60;;;;;;5050964;28;20028;-61
2022/07/25 02:33:56;;;;;;;;;;;27.00;48.70;;;;;;5049941;28;19920;-61
2022/07/25 02:36:21;;;;;;;;;;;26.90;48.40;;;;;;5050805;28;20365;-61
2022/07/25 02:38:47;;;;;;;;;;;26.90;48.60;;;;;;5044984;28;19916;-61
2022/07/25 02:41:12;;;;;;;;;;;26.90;48.60;;;;;;5049727;28;19967;-61
2022/07/25 02:43:37;;;;;;;;;;;26.90;48.10;;;;;;5050196;28;19917;-60
2022/07/25 02:46:03;;;;;;;;;;;26.90;48.10;;;;;;5050195;28;19920;-61
2022/07/25 02:48:28;;;;;;;;;;;26.90;48.50;;;;;;5049670;28;19924;-61
2022/07/25 02:50:54;;;;;;;;;;;26.80;47.90;;;;;;5050264;28;19952;-61
2022/07/25 02:53:19;;;;;;;;;;;26.80;47.90;;;;;;5049306;28;19917;-60
2022/07/25 02:55:45;;;;;;;;;;;26.90;47.80;;;;;;5047291;28;19916;-61
2022/07/25 02:58:10;;;;;;;;;;;26.90;47.60;;;;;;5050301;28;19924;-61
2022/07/25 03:00:36;;;;;;;;;;;26.80;47.20;;;;;;5051765;28;19944;-61
2022/07/25 03:03:01;;;;;;;;;;;26.80;47.30;;;;;;5051650;28;19908;-60
2022/07/25 03:05:26;;;;;;;;;;;26.80;47.20;;;;;;5054418;28;19916;-60
2022/07/25 03:07:52;;;;;;;;;;;26.80;47.00;;;;;;5056011;28;19912;-61
2022/07/25 03:10:17;;;;;;;;;;;26.70;47.00;;;;;;5035784;28;19909;-60
2022/07/25 03:12:43;;;;;;;;;;;26.70;46.90;;;;;;5049204;28;19920;-61
2022/07/25 03:15:09;;;;;;;;;;;26.60;47.30;;;;;;5054297;28;19930;-61
2022/07/25 03:17:34;;;;;;;;;;;26.60;47.00;;;;;;5055314;28;19912;-61
2022/07/25 03:19:59;;;;;;;;;;;26.70;46.70;;;;;;5055572;28;19909;-60
2022/07/25 03:22:25;;;;;;;;;;;26.70;46.70;;;;;;5054623;28;19917;-61
2022/07/25 03:24:51;;;;;;;;;;;26.60;46.60;;;;;;5054293;28;20021;-61
2022/07/25 03:27:16;;;;;;;;;;;26.60;47.10;;;;;;5053439;28;19917;-60
2022/07/25 03:29:42;;;;;;;;;;;26.60;46.60;;;;;;5053032;28;20005;-61
2022/07/25 03:32:07;;;;;;;;;;;26.60;46.40;;;;;;5051908;28;20536;-61
2022/07/25 03:34:33;;;;;;;;;;;26.60;46.50;;;;;;5053703;28;21362;-61
2022/07/25 03:36:59;;;;;;;;;;;26.60;46.50;;;;;;5053273;28;19960;-60
2022/07/25 03:39:24;;;;;;;;;;;26.60;46.40;;;;;;5053862;28;19921;-60
2022/07/25 03:41:51;;;;;;;;;;;26.70;46.30;;;;;;5053839;28;20351;-61
2022/07/25 03:44:17;;;;;;;;;;;26.60;46.30;;;;;;5047580;28;20060;-60
2022/07/25 03:46:43;;;;;;;;;;;26.60;45.80;;;;;;5049669;28;19947;-61
2022/07/25 03:49:08;;;;;;;;;;;26.60;45.80;;;;;;5051813;28;19956;-61
2022/07/25 03:51:33;;;;;;;;;;;26.60;46.30;;;;;;5053914;28;19921;-61
2022/07/25 03:54:02;;;;;;;;;;;26.50;45.90;;;;;;5053883;28;19917;-59
2022/07/25 03:56:28;;;;;;;;;;;26.40;45.80;;;;;;5054970;28;19912;-61
2022/07/25 03:58:54;;;;;;;;;;;26.30;45.90;;;;;;5054543;28;19915;-61
2022/07/25 04:01:19;;;;;;;;;;;26.30;45.70;;;;;;5054941;28;19988;-60
2022/07/25 04:03:45;;;;;;;;;;;26.30;45.80;;;;;;5054200;28;19913;-61
2022/07/25 04:06:10;;;;;;;;;;;26.20;45.70;;;;;;5053155;28;19913;-61
2022/07/25 04:08:35;;;;;;;;;;;26.10;45.90;;;;;;5053536;28;19909;-61
2022/07/25 04:11:01;;;;;;;;;;;26.00;45.80;;;;;;5053243;28;19948;-61
2022/07/25 04:13:26;;;;;;;;;;;26.00;45.90;;;;;;5054085;28;19925;-60
2022/07/25 04:15:54;;;;;;;;;;;25.90;45.80;;;;;;5053127;28;21303;-61
2022/07/25 04:18:19;;;;;;;;;;;25.90;45.80;;;;;;5052874;28;20428;-61
2022/07/25 04:20:45;;;;;;;;;;;25.80;45.80;;;;;;5049843;28;20474;-60
2022/07/25 04:23:10;;;;;;;;;;;25.70;45.80;;;;;;5049686;28;19908;-61
2022/07/25 04:25:36;;;;;;;;;;;25.80;46.00;;;;;;5052745;28;19913;-61
2022/07/25 04:28:01;;;;;;;;;;;25.60;45.90;;;;;;5053837;28;19916;-60
2022/07/25 04:30:27;;;;;;;;;;;25.60;45.90;;;;;;5054182;28;19913;-61
2022/07/25 04:32:52;;;;;;;;;;;25.70;45.90;;;;;;5052392;28;20273;-60
2022/07/25 04:35:18;;;;;;;;;;;25.60;45.90;;;;;;5054208;28;19913;-61
2022/07/25 04:37:43;;;;;;;;;;;25.60;45.90;;;;;;5051346;28;19916;-61
2022/07/25 04:40:10;;;;;;;;;;;25.60;46.10;;;;;;5052695;28;19920;-60
2022/07/25 04:42:35;;;;;;;;;;;25.60;45.90;;;;;;5053797;28;20288;-61
2022/07/25 04:45:01;;;;;;;;;;;25.70;45.90;;;;;;5053895;28;19913;-60
2022/07/25 04:47:26;;;;;;;;;;;25.80;45.80;;;;;;5053601;28;20003;-61
2022/07/25 04:49:52;;;;;;;;;;;25.70;45.70;;;;;;5052969;28;19912;-61
2022/07/25 04:52:17;;;;;;;;;;;25.70;45.90;;;;;;5053213;28;19948;-61
2022/07/25 04:54:43;;;;;;;;;;;25.60;45.90;;;;;;5053758;28;20423;-61
2022/07/25 04:57:08;;;;;;;;;;;25.60;45.90;;;;;;5053345;28;19909;-61
2022/07/25 04:59:34;;;;;;;;;;;25.60;45.90;;;;;;5051513;28;19917;-61
2022/07/25 05:02:00;;;;;;;;;;;25.70;45.80;;;;;;5039292;28;19917;-61
2022/07/25 05:04:25;;;;;;;;;;;25.70;45.80;;;;;;5050123;28;19928;-61
2022/07/25 05:06:51;;;;;;;;;;;25.80;45.80;;;;;;5049256;28;19912;-61
2022/07/25 05:09:16;;;;;;;;;;;25.80;45.60;;;;;;5050450;28;19935;-61
2022/07/25 05:11:41;;;;;;;;;;;25.90;45.60;;;;;;5043842;28;19948;-61
2022/07/25 05:14:07;;;;;;;;;;;26.00;45.40;;;;;;5051311;28;19924;-61
2022/07/25 05:16:32;;;;;;;;;;;26.10;45.40;;;;;;5050320;28;19920;-61
2022/07/25 05:18:58;;;;;;;;;;;26.10;45.30;;;;;;5050566;28;20353;-61
2022/07/25 05:21:23;;;;;;;;;;;26.00;45.40;;;;;;5050362;28;19912;-61
2022/07/25 05:23:49;;;;;;;;;;;25.90;45.50;;;;;;5048976;28;20380;-61
2022/07/25 05:26:14;;;;;;;;;;;25.80;45.70;;;;;;5050632;28;19924;-61
2022/07/25 05:28:39;;;;;;;;;;;25.90;45.60;;;;;;5050108;28;19920;-61
2022/07/25 05:31:05;;;;;;;;;;;25.90;45.80;;;;;;5050170;28;19947;-61
2022/07/25 05:33:30;;;;;;;;;;;25.90;45.50;;;;;;5050885;28;19913;-61
2022/07/25 05:35:56;;;;;;;;;;;25.90;45.50;;;;;;5049566;28;19913;-61
2022/07/25 05:38:21;;;;;;;;;;;26.00;45.50;;;;;;5045649;28;19935;-61
2022/07/25 05:40:47;;;;;;;;;;;26.00;45.40;;;;;;5049065;28;19923;-61
2022/07/25 05:43:13;;;;;;;;;;;26.10;45.40;;;;;;5050030;28;19929;-61
2022/07/25 05:45:38;;;;;;;;;;;26.00;45.40;;;;;;5045191;28;20369;-61
2022/07/25 05:48:04;;;;;;;;;;;26.10;45.40;;;;;;5048655;28;20377;-61
2022/07/25 05:50:29;;;;;;;;;;;26.10;45.60;;;;;;5050291;28;20329;-61
2022/07/25 05:52:55;;;;;;;;;;;26.10;45.40;;;;;;5051609;28;19909;-61
2022/07/25 05:55:20;;;;;;;;;;;26.10;45.40;;;;;;5039686;28;19917;-61
2022/07/25 05:57:45;;;;;;;;;;;26.10;45.40;;;;;;5049591;28;19942;-61
2022/07/25 06:00:11;;;;;;;;;;;26.10;45.40;;;;;;5050796;28;19913;-61
2022/07/25 06:02:36;;;;;;;;;;;26.00;45.60;;;;;;5048565;28;19991;-61
2022/07/25 06:05:02;;;;;;;;;;;26.00;45.80;;;;;;5050485;28;20265;-61
2022/07/25 06:07:27;;;;;;;;;;;26.00;45.80;;;;;;5046728;28;20305;-61
2022/07/25 06:09:53;;;;;;;;;;;26.00;45.90;;;;;;5051544;28;19960;-61
2022/07/25 06:12:18;;;;;;;;;;;26.00;45.90;;;;;;5051170;28;19924;-61
2022/07/25 06:14:44;;;;;;;;;;;26.00;45.90;;;;;;5049726;28;19916;-61
2022/07/25 06:17:09;;;;;;;;;;;26.00;46.10;;;;;;5048518;28;19916;-61
2022/07/25 06:19:34;;;;;;;;;;;25.90;46.20;;;;;;5041154;28;19964;-61
2022/07/25 06:22:00;;;;;;;;;;;25.90;46.30;;;;;;5047256;28;19928;-61
2022/07/25 06:24:25;;;;;;;;;;;26.00;46.20;;;;;;5051154;28;20303;-61
2022/07/25 06:26:51;;;;;;;;;;;26.00;46.20;;;;;;5049971;28;20369;-61
2022/07/25 06:29:16;;;;;;;;;;;25.90;46.40;;;;;;5043961;28;20344;-61
2022/07/25 06:31:42;;;;;;;;;;;25.90;46.60;;;;;;5044841;28;19935;-61
2022/07/25 06:34:07;;;;;;;;;;;25.90;46.60;;;;;;5047663;28;19917;-61
2022/07/25 06:36:33;;;;;;;;;;;25.90;46.60;;;;;;5048557;28;19959;-61
2022/07/25 06:38:58;;;;;;;;;;;26.00;46.40;;;;;;5047881;28;20006;-61
2022/07/25 06:41:24;;;;;;;;;;;26.00;46.50;;;;;;5049515;28;20012;-61
2022/07/25 06:43:49;;;;;;;;;;;26.10;46.50;;;;;;5047511;28;19921;-61
2022/07/25 06:46:15;;;;;;;;;;;26.00;46.60;;;;;;5049409;28;19948;-61
2022/07/25 06:48:40;;;;;;;;;;;26.00;46.70;;;;;;5050645;28;19913;-61
2022/07/25 06:51:06;;;;;;;;;;;26.00;46.80;;;;;;5053157;28;19939;-61
2022/07/25 06:53:31;;;;;;;;;;;25.90;46.90;;;;;;5048439;28;20369;-61
2022/07/25 06:55:57;;;;;;;;;;;25.90;47.30;;;;;;5051639;28;20431;-61
2022/07/25 06:58:22;;;;;;;;;;;25.80;47.40;;;;;;5050370;28;20028;-61
2022/07/25 07:00:47;;;;;;;;;;;25.90;47.60;;;;;;5051747;28;19962;-61
2022/07/25 07:03:13;;;;;;;;;;;25.90;47.70;;;;;;5050503;28;19909;-61
2022/07/25 07:05:38;;;;;;;;;;;25.90;47.70;;;;;;5049813;28;19920;-61
2022/07/25 07:08:04;;;;;;;;;;;25.90;47.70;;;;;;5050794;28;19920;-61
2022/07/25 07:10:29;;;;;;;;;;;26.00;47.70;;;;;;5051792;28;19995;-61
2022/07/25 07:13:08;;;;;;;;;;;26.00;47.70;;;;;;5040549;28;19927;-61
2022/07/25 07:15:34;;;;;;;;;;;26.00;47.70;;;;;;5048652;28;19940;-61
2022/07/25 07:17:59;;;;;;;;;;;26.00;47.90;;;;;;5049639;28;19959;-61
2022/07/25 07:20:25;;;;;;;;;;;26.00;48.00;;;;;;5047031;28;19919;-62
2022/07/25 07:22:51;;;;;;;;;;;26.10;48.20;;;;;;5041587;28;20401;-63
2022/07/25 07:25:16;;;;;;;;;;;26.10;48.30;;;;;;5047879;28;19921;-62
2022/07/25 07:27:42;;;;;;;;;;;26.10;48.40;;;;;;5046821;28;19916;-62
2022/07/25 07:30:08;;;;;;;;;;;26.20;48.60;;;;;;5047656;28;19960;-65
2022/07/25 07:32:33;;;;;;;;;;;26.20;48.80;;;;;;5039701;28;20730;-62
2022/07/25 07:34:59;;;;;;;;;;;26.20;48.70;;;;;;5031265;28;19929;-63
2022/07/25 07:37:24;;;;;;;;;;;26.30;48.60;;;;;;5030682;28;19978;-64
2022/07/25 07:39:50;;;;;;;;;;;26.30;48.70;;;;;;5042121;28;19913;-64
2022/07/25 07:42:15;;;;;;;;;;;26.40;48.60;;;;;;5038149;28;19913;-61
2022/07/25 07:44:41;;;;;;;;;;;26.40;48.70;;;;;;5036665;28;19939;-63
2022/07/25 07:47:06;;;;;;;;;;;26.40;48.70;;;;;;5037549;28;20007;-62
2022/07/25 07:49:31;;;;;;;;;;;26.40;48.70;;;;;;5037405;28;19913;-62
2022/07/25 07:51:57;;;;;;;;;;;26.50;48.80;;;;;;5036767;28;19921;-61
2022/07/25 07:57:07;;;;;;;;;;;26.60;48.70;;;;;;5044921;28;19967;-64
2022/07/25 07:59:32;;;;;;;;;;;26.70;48.50;;;;;;5039681;28;20292;-62
2022/07/25 08:01:58;;;;;;;;;;;26.80;48.30;;;;;;5044314;28;20431;-64
2022/07/25 08:04:23;;;;;;;;;;;26.80;48.10;;;;;;5044342;28;20386;-63
2022/07/25 08:06:49;;;;;;;;;;;26.90;48.10;;;;;;5045714;28;20333;-63
2022/07/25 08:09:14;;;;;;;;;;;26.90;47.70;;;;;;5048642;28;19923;-63
2022/07/25 08:11:40;;;;;;;;;;;26.90;47.60;;;;;;5050714;28;19967;-63
2022/07/25 08:14:05;;;;;;;;;;;27.00;47.40;;;;;;5045492;28;19920;-61
2022/07/25 08:16:31;;;;;;;;;;;27.00;47.10;;;;;;5051602;28;20054;-62
2022/07/25 08:18:57;;;;;;;;;;;27.00;47.20;;;;;;5050360;28;19916;-62
2022/07/25 08:21:22;;;;;;;;;;;27.00;47.20;;;;;;5047680;28;19913;-65
2022/07/25 08:23:48;;;;;;;;;;;27.10;47.10;;;;;;5048548;28;19954;-63
2022/07/25 08:26:13;;;;;;;;;;;27.10;47.00;;;;;;5048594;28;20019;-63
2022/07/25 08:28:39;;;;;;;;;;;27.10;47.00;;;;;;5048905;28;19931;-61
2022/07/25 08:31:04;;;;;;;;;;;27.10;47.00;;;;;;5049900;28;19920;-60
2022/07/25 08:33:30;;;;;;;;;;;27.10;47.10;;;;;;5049421;28;19919;-62
2022/07/25 08:35:57;;;;;;;;;;;27.20;46.90;;;;;;5050098;28;19912;-63
2022/07/25 08:38:23;;;;;;;;;;;27.20;46.80;;;;;;5047552;28;19913;-63
2022/07/25 08:40:49;;;;;;;;;;;27.30;46.70;;;;;;5050176;28;19913;-64
2022/07/25 08:43:15;;;;;;;;;;;27.30;46.70;;;;;;5040574;28;19939;-65
2022/07/25 08:45:47;;;;;;;;;;;27.40;46.70;;;;;;5041426;28;19917;-63
2022/07/25 08:48:13;;;;;;;;;;;27.40;46.60;;;;;;5037447;28;19966;-64
2022/07/25 08:50:38;;;;;;;;;;;27.40;46.50;;;;;;5048982;28;19992;-63
2022/07/25 08:53:04;;;;;;;;;;;27.40;46.50;;;;;;5044226;28;19912;-63
2022/07/25 08:55:29;;;;;;;;;;;27.50;46.40;;;;;;5041984;28;19916;-63
2022/07/25 08:57:55;;;;;;;;;;;27.60;46.40;;;;;;5040995;28;19916;-63
2022/07/25 09:00:21;;;;;;;;;;;27.60;46.20;;;;;;5046096;28;19924;-63
2022/07/25 09:02:53;;;;;;;;;;;27.70;46.30;;;;;;5043802;28;19913;-62
2022/07/25 09:05:19;;;;;;;;;;;27.70;46.40;;;;;;5044384;28;19925;-62
2022/07/25 09:07:44;;;;;;;;;;;27.70;46.40;;;;;;5048508;28;19913;-63
2022/07/25 09:10:30;;;;;;;;;;;27.80;46.40;;;;;;5046461;28;20296;-62
2022/07/25 09:12:56;;;;;;;;;;;27.80;46.30;;;;;;5049457;28;20328;-62
2022/07/25 09:15:31;;;;;;;;;;;27.90;46.40;;;;;;5048152;28;19919;-61
2022/07/25 09:17:57;;;;;;;;;;;27.90;46.20;;;;;;5050206;28;20079;-64
2022/07/25 09:20:23;;;;;;;;;;;27.90;45.90;;;;;;5049856;28;20397;-62
2022/07/25 09:22:48;;;;;;;;;;;28.00;45.50;;;;;;5049690;28;20008;-62
2022/07/25 09:25:21;;;;;;;;;;;28.00;45.30;;;;;;5047549;28;19960;-63
2022/07/25 09:27:46;;;;;;;;;;;28.00;45.30;;;;;;5041440;28;19912;-64
2022/07/25 09:30:13;;;;;;;;;;;28.00;45.50;;;;;;5048109;28;19921;-63
2022/07/25 09:32:38;;;;;;;;;;;28.00;45.40;;;;;;5049004;28;19927;-64
2022/07/25 09:35:04;;;;;;;;;;;28.00;45.30;;;;;;5050974;28;20366;-64
2022/07/25 09:37:29;;;;;;;;;;;28.10;45.30;;;;;;5046796;28;20280;-63
2022/07/25 09:39:55;;;;;;;;;;;28.20;45.20;;;;;;5051960;28;19935;-65
2022/07/25 09:42:24;;;;;;;;;;;28.20;45.20;;;;;;5048008;28;19936;-63
2022/07/25 09:44:56;;;;;;;;;;;28.20;45.00;;;;;;5048908;28;20276;-64
2022/07/25 09:47:22;;;;;;;;;;;28.30;45.00;;;;;;5045201;28;20358;-63
2022/07/25 09:49:48;;;;;;;;;;;28.30;44.90;;;;;;5048128;28;19924;-62
2022/07/25 09:52:13;;;;;;;;;;;28.30;45.50;;;;;;5043468;28;19920;-63
2022/07/25 09:54:39;;;;;;;;;;;28.40;44.60;;;;;;5049542;28;20004;-61
2022/07/25 09:57:04;;;;;;;;;;;28.40;44.40;;;;;;5045685;28;19917;-64
2022/07/25 09:59:31;;;;;;;;;;;28.50;44.30;;;;;;5043786;28;19928;-63
2022/07/25 10:02:07;;;;;;;;;;;28.50;44.30;;;;;;5037237;28;19955;-62
2022/07/25 10:04:42;;;;;;;;;;;28.50;44.20;;;;;;5034864;28;20594;-64
2022/07/25 10:07:11;;;;;;;;;;;28.40;44.20;;;;;;5037046;28;20034;-62
2022/07/25 10:09:40;;;;;;;;;;;28.50;44.00;;;;;;5049663;28;19932;-61
2022/07/25 10:12:07;;;;;;;;;;;28.50;43.90;;;;;;5049324;28;19925;-64
2022/07/25 10:14:33;;;;;;;;;;;28.50;43.90;;;;;;5050871;28;20356;-63
2022/07/25 10:16:58;;;;;;;;;;;28.40;43.80;;;;;;5046784;28;19923;-63
2022/07/25 10:19:42;;;;;;;;;;;28.50;43.60;;;;;;5046040;28;19917;-62
2022/07/25 10:22:08;;;;;;;;;;;28.60;43.60;;;;;;5045329;28;20338;-63
2022/07/25 10:24:34;;;;;;;;;;;28.60;43.60;;;;;;5038658;28;19937;-63
2022/07/25 10:27:06;;;;;;;;;;;28.60;43.60;;;;;;5037464;28;20062;-64
2022/07/25 10:29:34;;;;;;;;;;;28.60;43.50;;;;;;5041100;28;19944;-63
2022/07/25 10:32:06;;;;;;;;;;;28.60;43.40;;;;;;5038435;28;19924;-63
2022/07/25 10:34:32;;;;;;;;;;;28.60;43.10;;;;;;5033358;28;19978;-65
2022/07/25 10:37:07;;;;;;;;;;;28.60;43.00;;;;;;5014925;28;20389;-65
2022/07/25 10:39:36;;;;;;;;;;;28.70;43.10;;;;;;5038585;28;19913;-65
2022/07/25 10:42:01;;;;;;;;;;;28.60;43.00;;;;;;5035040;28;19975;-63
2022/07/25 10:44:29;;;;;;;;;;;28.70;43.00;;;;;;5037548;28;19971;-64
2022/07/25 10:47:11;;;;;;;;;;;28.80;43.20;;;;;;5034068;28;19936;-63
2022/07/25 10:49:40;;;;;;;;;;;28.70;43.20;;;;;;5039512;28;19913;-63
2022/07/25 10:52:06;;;;;;;;;;;28.70;43.20;;;;;;5037991;28;20006;-64
2022/07/25 10:54:35;;;;;;;;;;;28.70;43.30;;;;;;5039437;28;20368;-64
2022/07/25 10:57:01;;;;;;;;;;;28.70;43.30;;;;;;5038447;28;19924;-64
2022/07/25 10:59:36;;;;;;;;;;;28.70;43.30;;;;;;5032151;28;19917;-64
2022/07/25 11:02:05;;;;;;;;;;;28.70;43.30;;;;;;5041458;28;19917;-63
2022/07/25 11:04:31;;;;;;;;;;;28.70;43.30;;;;;;5037661;28;19912;-65
2022/07/25 11:06:56;;;;;;;;;;;28.70;43.30;;;;;;5035005;28;19920;-65
2022/07/25 11:09:23;;;;;;;;;;;28.70;43.40;;;;;;5037095;28;20384;-63
2022/07/25 11:11:50;;;;;;;;;;;28.70;43.30;;;;;;5040239;28;19955;-63
2022/07/25 11:14:18;;;;;;;;;;;28.70;43.30;;;;;;5039983;28;19936;-63
2022/07/25 11:16:44;;;;;;;;;;;28.70;43.40;;;;;;5036549;28;20361;-63
2022/07/25 11:19:16;;;;;;;;;;;28.70;43.50;;;;;;5036598;28;19944;-65
2022/07/25 11:21:42;;;;;;;;;;;28.70;43.50;;;;;;5038350;28;19913;-63
2022/07/25 11:24:08;;;;;;;;;;;28.70;43.60;;;;;;5041292;28;20431;-63
2022/07/25 11:26:33;;;;;;;;;;;28.70;43.70;;;;;;5038637;28;19930;-62
2022/07/25 11:28:59;;;;;;;;;;;28.70;43.80;;;;;;5047070;28;19917;-63
2022/07/25 11:31:24;;;;;;;;;;;28.70;43.80;;;;;;5049483;28;19975;-62
2022/07/25 11:33:50;;;;;;;;;;;28.70;43.90;;;;;;5045810;28;19919;-61
2022/07/25 11:36:15;;;;;;;;;;;28.70;44.00;;;;;;5044997;28;19936;-62
2022/07/25 11:38:41;;;;;;;;;;;28.70;44.00;;;;;;5050424;28;19917;-65
2022/07/25 11:41:06;;;;;;;;;;;28.80;44.10;;;;;;5033750;28;20008;-65
2022/07/25 11:43:32;;;;;;;;;;;28.90;44.10;;;;;;5032306;28;19920;-64
2022/07/25 11:46:01;;;;;;;;;;;28.90;44.00;;;;;;5048686;28;19925;-63
2022/07/25 11:48:31;;;;;;;;;;;28.90;44.10;;;;;;5048554;28;19919;-63
2022/07/25 11:50:56;;;;;;;;;;;28.90;44.10;;;;;;5052139;28;20316;-64
2022/07/25 11:53:21;;;;;;;;;;;29.00;44.00;;;;;;5049720;28;19999;-64
2022/07/25 11:55:47;;;;;;;;;;;29.10;43.80;;;;;;5048816;28;20293;-63
2022/07/25 11:58:12;;;;;;;;;;;29.10;43.70;;;;;;5052448;28;19923;-65
2022/07/25 12:00:38;;;;;;;;;;;29.20;43.70;;;;;;5050621;28;19924;-64
2022/07/25 12:03:08;;;;;;;;;;;29.30;43.60;;;;;;5047229;28;19921;-64
2022/07/25 12:05:33;;;;;;;;;;;29.30;43.50;;;;;;5045041;28;19924;-64
2022/07/25 12:08:06;;;;;;;;;;;29.40;43.10;;;;;;5051653;28;19917;-64
2022/07/25 12:10:32;;;;;;;;;;;29.40;43.30;;;;;;5050025;28;19921;-64
2022/07/25 12:12:58;;;;;;;;;;;29.40;43.20;;;;;;5049269;28;20273;-64
2022/07/25 12:15:24;;;;;;;;;;;29.40;43.10;;;;;;5051159;28;19944;-64
2022/07/25 12:17:50;;;;;;;;;;;29.40;42.90;;;;;;5047257;28;19924;-65
2022/07/25 12:20:19;;;;;;;;;;;29.40;42.80;;;;;;5051870;28;19917;-65
2022/07/25 12:22:45;;;;;;;;;;;29.50;42.80;;;;;;5042392;28;19917;-65
2022/07/25 12:25:10;;;;;;;;;;;29.50;42.80;;;;;;5049385;28;19939;-65
2022/07/25 12:27:36;;;;;;;;;;;29.60;42.30;;;;;;5046348;28;19913;-63
2022/07/25 12:30:01;;;;;;;;;;;29.60;41.80;;;;;;5053301;28;19916;-64
2022/07/25 12:32:27;;;;;;;;;;;29.70;41.00;;;;;;5045673;28;19921;-64
2022/07/25 12:34:52;;;;;;;;;;;29.70;41.00;;;;;;5047370;28;20269;-61
2022/07/25 12:37:20;;;;;;;;;;;29.70;41.00;;;;;;5047234;28;19917;-63
2022/07/25 12:39:46;;;;;;;;;;;29.70;41.30;;;;;;5049886;28;19932;-62
2022/07/25 12:42:11;;;;;;;;;;;29.60;41.30;;;;;;5048079;28;19913;-66
2022/07/25 12:44:37;;;;;;;;;;;29.60;41.40;;;;;;5047658;28;19959;-64
2022/07/25 12:47:02;;;;;;;;;;;29.70;41.40;;;;;;5046250;28;19920;-64
2022/07/25 12:49:28;;;;;;;;;;;29.70;41.40;;;;;;5051593;28;19942;-64
2022/07/25 12:51:53;;;;;;;;;;;29.70;41.40;;;;;;5046033;28;19939;-63
2022/07/25 12:54:18;;;;;;;;;;;29.60;41.60;;;;;;5049584;28;19970;-66
2022/07/25 12:56:44;;;;;;;;;;;29.60;41.80;;;;;;5047152;28;19917;-64
2022/07/25 12:59:09;;;;;;;;;;;29.60;41.80;;;;;;5045928;28;19917;-62
2022/07/25 13:01:35;;;;;;;;;;;29.60;41.80;;;;;;5046224;28;20011;-64
2022/07/25 13:04:00;;;;;;;;;;;29.60;41.70;;;;;;5047856;28;19968;-64
2022/07/25 13:06:26;;;;;;;;;;;29.60;41.90;;;;;;5038059;28;19920;-63
2022/07/25 13:08:51;;;;;;;;;;;29.60;42.70;;;;;;5034857;28;19921;-63
2022/07/25 13:11:16;;;;;;;;;;;29.50;42.30;;;;;;5036196;28;20653;-64
2022/07/25 13:13:42;;;;;;;;;;;29.40;42.20;;;;;;5034434;28;21208;-64
2022/07/25 13:16:07;;;;;;;;;;;29.40;42.50;;;;;;5039034;28;19921;-63
2022/07/25 13:18:33;;;;;;;;;;;29.40;42.60;;;;;;5041992;28;19913;-65
2022/07/25 13:21:02;;;;;;;;;;;29.40;42.60;;;;;;5038719;28;19916;-66
2022/07/25 13:23:27;;;;;;;;;;;29.50;42.50;;;;;;5040549;28;20024;-64
2022/07/25 13:25:53;;;;;;;;;;;29.50;42.60;;;;;;5028431;28;20015;-65
2022/07/25 13:28:18;;;;;;;;;;;29.60;42.90;;;;;;5042007;28;19920;-63
2022/07/25 13:30:44;;;;;;;;;;;29.60;42.80;;;;;;5044761;28;19931;-65
2022/07/25 13:33:09;;;;;;;;;;;29.60;42.80;;;;;;5049522;28;19916;-64
2022/07/25 13:35:35;;;;;;;;;;;29.50;42.90;;;;;;5048876;28;19962;-63
2022/07/25 13:38:00;;;;;;;;;;;29.50;42.90;;;;;;5046342;28;20385;-63
2022/07/25 13:40:26;;;;;;;;;;;29.50;43.00;;;;;;5048571;28;19952;-63
2022/07/25 13:42:51;;;;;;;;;;;29.50;43.00;;;;;;5050863;28;19967;-63
2022/07/25 13:45:17;;;;;;;;;;;29.50;43.10;;;;;;5043792;28;19912;-63
2022/07/25 13:47:42;;;;;;;;;;;29.60;43.20;;;;;;5050999;28;19919;-63
2022/07/25 13:50:08;;;;;;;;;;;29.60;43.20;;;;;;5050733;28;19930;-64
2022/07/25 13:52:33;;;;;;;;;;;29.50;43.20;;;;;;5046575;28;19919;-64
2022/07/25 13:54:59;;;;;;;;;;;29.50;43.30;;;;;;5048510;28;19917;-64
2022/07/25 13:57:24;;;;;;;;;;;29.50;43.50;;;;;;5050899;28;19921;-68
2022/07/25 13:59:50;;;;;;;;;;;29.50;43.70;;;;;;5049748;28;19913;-64
2022/07/25 14:02:15;;;;;;;;;;;29.40;43.70;;;;;;5046355;28;20280;-62
2022/07/25 14:04:41;;;;;;;;;;;29.40;43.80;;;;;;5048508;28;19960;-63
2022/07/25 14:07:06;;;;;;;;;;;29.40;43.90;;;;;;5038129;28;19962;-64
2022/07/25 14:09:31;;;;;;;;;;;29.40;44.00;;;;;;5057706;28;19920;-64
2022/07/25 14:11:57;;;;;;;;;;;29.40;44.10;;;;;;5044344;28;19928;-63